createdAt,value
2017-07-07T00:00:37.788Z,0
2017-07-07T00:01:39.845Z,0
2017-07-07T00:02:41.905Z,0
2017-07-07T00:03:43.964Z,0
2017-07-07T00:04:46.022Z,0
2017-07-07T00:05:48.087Z,0
2017-07-07T00:06:50.152Z,0
2017-07-07T00:07:52.560Z,0
2017-07-07T00:08:54.612Z,0
2017-07-07T00:09:56.673Z,0
2017-07-07T00:10:58.731Z,0
2017-07-07T00:12:00.794Z,0
2017-07-07T00:13:02.846Z,0
2017-07-07T00:14:04.910Z,0
2017-07-07T00:15:06.967Z,0
2017-07-07T00:16:09.021Z,0
2017-07-07T00:17:11.082Z,0
2017-07-07T00:18:13.141Z,0
2017-07-07T00:19:15.208Z,0
2017-07-07T00:20:17.268Z,0
2017-07-07T00:21:19.334Z,0
2017-07-07T00:22:21.760Z,0
2017-07-07T00:23:23.822Z,0
2017-07-07T00:24:25.876Z,0
2017-07-07T00:25:27.942Z,0
2017-07-07T00:26:30.003Z,0
2017-07-07T00:27:32.064Z,0
2017-07-07T00:28:34.123Z,0
2017-07-07T00:29:36.187Z,0
2017-07-07T00:30:38.242Z,0
2017-07-07T00:31:40.307Z,0
2017-07-07T00:32:42.365Z,0
2017-07-07T00:33:44.437Z,0
2017-07-07T00:34:46.862Z,0
2017-07-07T00:35:48.924Z,0
2017-07-07T00:36:51.330Z,0
2017-07-07T00:37:53.390Z,0
2017-07-07T00:38:55.449Z,0
2017-07-07T00:39:57.879Z,0
2017-07-07T00:41:00.363Z,0
2017-07-07T00:42:02.425Z,0
2017-07-07T00:43:04.474Z,0
2017-07-07T00:44:06.543Z,0
2017-07-07T00:45:08.596Z,0
2017-07-07T00:46:10.656Z,0
2017-07-07T00:47:12.721Z,0
2017-07-07T00:48:14.783Z,0
2017-07-07T00:49:16.836Z,0
2017-07-07T00:50:18.894Z,0
2017-07-07T00:51:20.946Z,0
2017-07-07T00:52:23.008Z,0
2017-07-07T00:53:25.062Z,0
2017-07-07T00:54:27.116Z,0
2017-07-07T00:55:29.527Z,0
2017-07-07T00:56:31.588Z,0
2017-07-07T00:57:33.648Z,0
2017-07-07T00:58:35.717Z,0
2017-07-07T00:59:37.783Z,0
2017-07-07T01:00:39.837Z,0
2017-07-07T01:01:42.616Z,0
2017-07-07T01:02:44.675Z,0
2017-07-07T01:03:46.740Z,0
2017-07-07T01:04:48.800Z,0
2017-07-07T01:05:50.864Z,0
2017-07-07T01:06:52.922Z,0
2017-07-07T01:07:54.973Z,0
2017-07-07T01:08:57.038Z,0
2017-07-07T01:09:59.105Z,0
2017-07-07T01:11:01.164Z,0
2017-07-07T01:12:03.217Z,0
2017-07-07T01:13:05.279Z,0
2017-07-07T01:14:07.334Z,0
2017-07-07T01:15:09.392Z,0
2017-07-07T01:16:11.454Z,0
2017-07-07T01:17:13.521Z,0
2017-07-07T01:18:15.587Z,0
2017-07-07T01:19:17.640Z,0
2017-07-07T01:20:19.700Z,0
2017-07-07T01:21:21.761Z,0
2017-07-07T01:22:23.825Z,0
2017-07-07T01:23:25.885Z,0
2017-07-07T01:24:27.953Z,0
2017-07-07T01:25:30.358Z,0
2017-07-07T01:26:32.405Z,0
2017-07-07T01:27:34.464Z,0
2017-07-07T01:28:36.529Z,0
2017-07-07T01:29:38.586Z,0
2017-07-07T01:30:40.652Z,0
2017-07-07T01:31:42.698Z,0
2017-07-07T01:32:44.758Z,0
2017-07-07T01:33:46.824Z,0
2017-07-07T01:34:48.879Z,0
2017-07-07T01:35:50.940Z,0
2017-07-07T01:36:53.355Z,0
2017-07-07T01:37:55.414Z,0
2017-07-07T01:38:57.478Z,0
2017-07-07T01:39:59.535Z,0
2017-07-07T01:41:01.603Z,0
2017-07-07T01:42:03.655Z,0
2017-07-07T01:43:05.711Z,0
2017-07-07T01:44:07.770Z,0
2017-07-07T01:45:09.835Z,0
2017-07-07T01:46:11.895Z,0
2017-07-07T01:47:13.949Z,0
2017-07-07T01:48:16.014Z,0
2017-07-07T01:49:18.071Z,0
2017-07-07T01:50:20.122Z,0
2017-07-07T01:51:22.178Z,0
2017-07-07T01:52:24.247Z,0
2017-07-07T01:53:26.305Z,0
2017-07-07T01:54:28.362Z,0
2017-07-07T01:55:30.427Z,0
2017-07-07T01:56:32.481Z,0
2017-07-07T01:57:34.541Z,0
2017-07-07T01:58:36.594Z,0
2017-07-07T01:59:38.667Z,0
2017-07-07T02:00:40.726Z,0
2017-07-07T02:01:42.781Z,0
2017-07-07T02:02:44.847Z,0
2017-07-07T02:03:46.908Z,0
2017-07-07T02:04:48.964Z,0
2017-07-07T02:05:51.023Z,0
2017-07-07T02:06:53.084Z,0
2017-07-07T02:07:55.151Z,0
2017-07-07T02:08:57.210Z,0
2017-07-07T02:09:59.268Z,0
2017-07-07T02:11:01.327Z,0
2017-07-07T02:12:03.379Z,0
2017-07-07T02:13:05.440Z,0
2017-07-07T02:14:08.148Z,4
2017-07-07T02:15:10.555Z,4
2017-07-07T02:16:12.613Z,4
2017-07-07T02:17:14.673Z,0
2017-07-07T02:18:16.731Z,0
2017-07-07T02:19:18.784Z,4
2017-07-07T02:20:21.191Z,4
2017-07-07T02:21:23.257Z,4
2017-07-07T02:22:25.316Z,4
2017-07-07T02:23:27.377Z,4
2017-07-07T02:24:29.437Z,8
2017-07-07T02:25:31.501Z,8
2017-07-07T02:26:33.561Z,8
2017-07-07T02:27:35.621Z,8
2017-07-07T02:28:37.681Z,8
2017-07-07T02:29:39.746Z,12
2017-07-07T02:30:41.802Z,12
2017-07-07T02:31:43.865Z,12
2017-07-07T02:32:45.923Z,16
2017-07-07T02:33:47.982Z,12
2017-07-07T02:34:50.041Z,16
2017-07-07T02:35:52.102Z,16
2017-07-07T02:36:54.271Z,16
2017-07-07T02:37:56.335Z,24
2017-07-07T02:38:58.392Z,24
2017-07-07T02:40:00.467Z,28
2017-07-07T02:41:02.526Z,32
2017-07-07T02:42:04.586Z,36
2017-07-07T02:43:06.650Z,40
2017-07-07T02:44:08.716Z,40
2017-07-07T02:45:10.777Z,48
2017-07-07T02:46:12.842Z,52
2017-07-07T02:47:14.901Z,64
2017-07-07T02:48:16.961Z,72
2017-07-07T02:49:19.017Z,88
2017-07-07T02:50:21.080Z,104
2017-07-07T02:51:23.148Z,120
2017-07-07T02:52:25.220Z,132
2017-07-07T02:53:27.275Z,148
2017-07-07T02:54:29.326Z,164
2017-07-07T02:55:31.389Z,184
2017-07-07T02:56:33.448Z,200
2017-07-07T02:57:35.512Z,220
2017-07-07T02:58:37.580Z,244
2017-07-07T02:59:39.649Z,268
2017-07-07T03:00:41.713Z,288
2017-07-07T03:01:43.767Z,308
2017-07-07T03:02:45.825Z,324
2017-07-07T03:03:47.903Z,336
2017-07-07T03:04:49.962Z,348
2017-07-07T03:05:52.028Z,356
2017-07-07T03:06:54.094Z,364
2017-07-07T03:07:56.151Z,380
2017-07-07T03:08:58.209Z,392
2017-07-07T03:10:00.619Z,408
2017-07-07T03:11:02.677Z,424
2017-07-07T03:12:04.745Z,448
2017-07-07T03:13:06.796Z,472
2017-07-07T03:14:08.863Z,496
2017-07-07T03:15:10.925Z,524
2017-07-07T03:16:12.983Z,560
2017-07-07T03:17:15.047Z,596
2017-07-07T03:18:17.118Z,644
2017-07-07T03:19:19.185Z,688
2017-07-07T03:20:21.242Z,736
2017-07-07T03:21:23.304Z,780
2017-07-07T03:22:25.373Z,820
2017-07-07T03:23:27.431Z,864
2017-07-07T03:24:29.490Z,904
2017-07-07T03:25:31.551Z,940
2017-07-07T03:26:33.618Z,976
2017-07-07T03:27:35.679Z,1008
2017-07-07T03:28:37.750Z,1040
2017-07-07T03:29:39.808Z,1068
2017-07-07T03:30:41.871Z,1096
2017-07-07T03:31:43.939Z,1124
2017-07-07T03:32:45.997Z,1156
2017-07-07T03:33:48.063Z,1200
2017-07-07T03:34:50.131Z,1248
2017-07-07T03:35:52.194Z,1304
2017-07-07T03:36:54.659Z,1360
2017-07-07T03:37:56.719Z,1420
2017-07-07T03:38:58.783Z,1484
2017-07-07T03:40:00.839Z,1540
2017-07-07T03:41:02.904Z,1600
2017-07-07T03:42:04.966Z,1664
2017-07-07T03:43:07.035Z,1720
2017-07-07T03:44:09.094Z,1756
2017-07-07T03:45:11.158Z,1764
2017-07-07T03:46:13.222Z,1756
2017-07-07T03:47:15.290Z,1732
2017-07-07T03:48:17.349Z,1072
2017-07-07T03:49:19.417Z,1692
2017-07-07T03:50:21.485Z,1676
2017-07-07T03:51:23.543Z,1684
2017-07-07T03:52:25.603Z,1708
2017-07-07T03:53:27.664Z,1740
2017-07-07T03:54:29.724Z,1780
2017-07-07T03:55:31.793Z,1800
2017-07-07T03:56:33.856Z,1788
2017-07-07T03:57:35.920Z,1764
2017-07-07T03:58:37.982Z,1752
2017-07-07T03:59:40.040Z,1744
2017-07-07T04:00:42.101Z,1756
2017-07-07T04:01:44.159Z,1780
2017-07-07T04:02:46.226Z,1820
2017-07-07T04:03:48.290Z,1868
2017-07-07T04:04:50.348Z,1932
2017-07-07T04:05:52.417Z,1980
2017-07-07T04:06:54.482Z,2036
2017-07-07T04:07:56.540Z,2096
2017-07-07T04:08:58.606Z,2164
2017-07-07T04:10:00.664Z,2224
2017-07-07T04:11:02.733Z,2288
2017-07-07T04:12:04.797Z,2348
2017-07-07T04:13:06.862Z,2404
2017-07-07T04:14:08.928Z,2464
2017-07-07T04:15:10.988Z,2536
2017-07-07T04:16:13.051Z,2624
2017-07-07T04:17:15.111Z,2724
2017-07-07T04:18:17.179Z,2832
2017-07-07T04:19:19.255Z,2928
2017-07-07T04:20:21.309Z,2988
2017-07-07T04:21:23.377Z,2992
2017-07-07T04:22:25.436Z,2952
2017-07-07T04:23:27.493Z,2900
2017-07-07T04:24:29.560Z,2848
2017-07-07T04:25:31.630Z,2808
2017-07-07T04:26:33.694Z,2788
2017-07-07T04:27:35.760Z,2768
2017-07-07T04:28:37.811Z,2756
2017-07-07T04:29:39.879Z,2732
2017-07-07T04:30:41.947Z,2680
2017-07-07T04:31:44.010Z,2656
2017-07-07T04:32:46.079Z,2672
2017-07-07T04:33:48.148Z,2756
2017-07-07T04:34:50.208Z,2856
2017-07-07T04:35:52.270Z,2896
2017-07-07T04:36:54.383Z,2840
2017-07-07T04:37:56.455Z,2744
2017-07-07T04:38:58.522Z,2664
2017-07-07T04:40:00.592Z,2664
2017-07-07T04:41:02.652Z,2776
2017-07-07T04:42:04.717Z,2940
2017-07-07T04:43:06.789Z,3084
2017-07-07T04:44:08.847Z,3168
2017-07-07T04:45:10.911Z,3172
2017-07-07T04:46:12.975Z,3100
2017-07-07T04:47:15.043Z,3088
2017-07-07T04:48:17.106Z,3192
2017-07-07T04:49:19.167Z,3368
2017-07-07T04:50:21.244Z,3572
2017-07-07T04:51:23.306Z,3768
2017-07-07T04:52:25.364Z,3940
2017-07-07T04:53:27.584Z,4052
2017-07-07T04:54:29.872Z,4088
2017-07-07T04:55:31.942Z,3988
2017-07-07T04:56:34.007Z,3704
2017-07-07T04:57:36.406Z,3312
2017-07-07T04:58:38.473Z,2904
2017-07-07T04:59:40.548Z,2736
2017-07-07T05:00:42.607Z,2832
2017-07-07T05:01:44.685Z,2980
2017-07-07T05:02:46.753Z,2920
2017-07-07T05:03:48.811Z,2708
2017-07-07T05:04:50.882Z,2432
2017-07-07T05:05:52.948Z,2224
2017-07-07T05:06:55.006Z,2144
2017-07-07T05:07:57.069Z,2200
2017-07-07T05:08:59.147Z,2292
2017-07-07T05:10:01.204Z,2388
2017-07-07T05:11:03.276Z,2476
2017-07-07T05:12:05.372Z,2560
2017-07-07T05:13:07.501Z,2612
2017-07-07T05:14:09.612Z,2640
2017-07-07T05:15:11.649Z,2660
2017-07-07T05:16:13.729Z,2688
2017-07-07T05:17:15.822Z,2732
2017-07-07T05:18:17.916Z,2732
2017-07-07T05:19:20.042Z,2712
2017-07-07T05:20:22.157Z,2688
2017-07-07T05:21:24.223Z,2656
2017-07-07T05:22:26.330Z,2640
2017-07-07T05:23:28.463Z,2604
2017-07-07T05:24:30.606Z,2504
2017-07-07T05:25:33.018Z,2316
2017-07-07T05:26:35.093Z,2096
2017-07-07T05:27:37.215Z,1892
2017-07-07T05:28:39.287Z,1720
2017-07-07T05:29:41.357Z,1584
2017-07-07T05:30:43.469Z,1472
2017-07-07T05:31:45.575Z,1340
2017-07-07T05:32:47.727Z,1192
2017-07-07T05:33:49.891Z,1108
2017-07-07T05:34:51.923Z,1088
2017-07-07T05:35:54.045Z,1128
2017-07-07T05:36:56.203Z,1228
2017-07-07T05:37:58.297Z,1340
2017-07-07T05:39:00.423Z,1424
2017-07-07T05:40:02.572Z,1472
2017-07-07T05:41:04.670Z,1520
2017-07-07T05:42:06.751Z,1600
2017-07-07T05:43:08.823Z,1712
2017-07-07T05:44:10.902Z,1792
2017-07-07T05:45:12.965Z,1900
2017-07-07T05:46:15.021Z,2048
2017-07-07T05:47:17.088Z,2208
2017-07-07T05:48:19.147Z,2380
2017-07-07T05:49:21.200Z,2568
2017-07-07T05:50:23.268Z,2808
2017-07-07T05:51:25.336Z,3076
2017-07-07T05:52:27.403Z,3364
2017-07-07T05:53:29.462Z,3716
2017-07-07T05:54:31.523Z,4076
2017-07-07T05:55:33.592Z,4448
2017-07-07T05:56:35.659Z,4840
2017-07-07T05:57:37.719Z,5224
2017-07-07T05:58:39.774Z,5588
2017-07-07T05:59:42.182Z,5968
2017-07-07T06:00:44.246Z,6372
2017-07-07T06:01:46.656Z,6840
2017-07-07T06:02:48.726Z,7160
2017-07-07T06:03:50.794Z,7200
2017-07-07T06:04:52.856Z,6768
2017-07-07T06:05:54.910Z,6188
2017-07-07T06:06:57.330Z,5816
2017-07-07T06:07:59.404Z,5904
2017-07-07T06:09:01.477Z,6476
2017-07-07T06:10:03.539Z,7424
2017-07-07T06:11:05.600Z,8564
2017-07-07T06:12:07.668Z,9496
2017-07-07T06:13:09.738Z,10016
2017-07-07T06:14:11.794Z,10128
2017-07-07T06:15:13.862Z,9992
2017-07-07T06:16:15.922Z,9856
2017-07-07T06:17:17.989Z,9680
2017-07-07T06:18:20.052Z,9564
2017-07-07T06:19:22.110Z,9472
2017-07-07T06:20:24.180Z,9496
2017-07-07T06:21:26.254Z,9704
2017-07-07T06:22:28.310Z,9996
2017-07-07T06:23:30.379Z,10196
2017-07-07T06:24:32.779Z,10564
2017-07-07T06:25:34.842Z,11056
2017-07-07T06:26:36.908Z,11868
2017-07-07T06:27:38.982Z,12752
2017-07-07T06:28:41.062Z,13640
2017-07-07T06:29:43.130Z,14180
2017-07-07T06:30:45.539Z,14056
2017-07-07T06:31:47.961Z,13752
2017-07-07T06:32:50.014Z,13608
2017-07-07T06:33:52.071Z,13696
2017-07-07T06:34:54.138Z,14148
2017-07-07T06:35:56.232Z,14648
2017-07-07T06:36:58.473Z,14992
2017-07-07T06:38:00.558Z,15248
2017-07-07T06:39:02.615Z,15268
2017-07-07T06:40:04.679Z,15288
2017-07-07T06:41:06.762Z,15124
2017-07-07T06:42:08.820Z,14872
2017-07-07T06:43:10.902Z,14384
2017-07-07T06:44:12.969Z,13912
2017-07-07T06:45:15.031Z,13464
2017-07-07T06:46:17.099Z,12904
2017-07-07T06:47:19.161Z,12236
2017-07-07T06:48:21.242Z,11712
2017-07-07T06:49:23.312Z,11096
2017-07-07T06:50:25.375Z,10472
2017-07-07T06:51:27.453Z,9960
2017-07-07T06:52:29.515Z,9584
2017-07-07T06:53:31.568Z,9348
2017-07-07T06:54:33.647Z,9344
2017-07-07T06:55:35.713Z,9140
2017-07-07T06:56:37.797Z,8800
2017-07-07T06:57:39.866Z,8532
2017-07-07T06:58:41.942Z,8492
2017-07-07T06:59:44.008Z,8708
2017-07-07T07:00:46.090Z,8988
2017-07-07T07:01:48.142Z,9104
2017-07-07T07:02:50.223Z,9160
2017-07-07T07:03:52.287Z,9216
2017-07-07T07:04:54.357Z,9156
2017-07-07T07:05:56.428Z,9248
2017-07-07T07:06:58.496Z,9400
2017-07-07T07:08:00.561Z,9780
2017-07-07T07:09:02.973Z,10280
2017-07-07T07:10:05.036Z,11092
2017-07-07T07:11:07.110Z,11588
2017-07-07T07:12:09.174Z,11952
2017-07-07T07:13:11.256Z,12188
2017-07-07T07:14:13.319Z,12312
2017-07-07T07:15:15.389Z,12128
2017-07-07T07:16:17.798Z,11884
2017-07-07T07:17:19.862Z,11612
2017-07-07T07:18:21.925Z,11276
2017-07-07T07:19:23.985Z,11032
2017-07-07T07:20:26.056Z,10924
2017-07-07T07:21:28.126Z,10956
2017-07-07T07:22:30.196Z,10984
2017-07-07T07:23:32.264Z,11244
2017-07-07T07:24:34.327Z,11588
2017-07-07T07:25:36.390Z,12124
2017-07-07T07:26:38.458Z,12640
2017-07-07T07:27:40.525Z,13284
2017-07-07T07:28:42.602Z,13852
2017-07-07T07:29:45.005Z,14328
2017-07-07T07:30:47.065Z,14788
2017-07-07T07:31:49.123Z,15236
2017-07-07T07:32:51.198Z,15840
2017-07-07T07:33:53.263Z,16800
2017-07-07T07:34:55.325Z,18056
2017-07-07T07:35:57.403Z,19648
2017-07-07T07:36:59.550Z,21376
2017-07-07T07:38:01.606Z,23264
2017-07-07T07:39:03.678Z,25056
2017-07-07T07:40:05.748Z,26496
2017-07-07T07:41:07.817Z,27424
2017-07-07T07:42:09.880Z,28224
2017-07-07T07:43:11.945Z,28224
2017-07-07T07:44:14.010Z,27520
2017-07-07T07:45:16.081Z,26144
2017-07-07T07:46:18.497Z,24416
2017-07-07T07:47:20.567Z,23360
2017-07-07T07:48:22.631Z,21696
2017-07-07T07:49:24.702Z,21024
2017-07-07T07:50:26.763Z,21792
2017-07-07T07:51:28.829Z,20736
2017-07-07T07:52:30.894Z,20128
2017-07-07T07:53:32.958Z,20512
2017-07-07T07:54:35.020Z,20288
2017-07-07T07:55:37.100Z,19328
2017-07-07T07:56:39.163Z,17780
2017-07-07T07:57:41.227Z,18128
2017-07-07T07:58:43.293Z,18044
2017-07-07T07:59:45.358Z,17592
2017-07-07T08:00:47.427Z,15812
2017-07-07T08:01:49.492Z,13948
2017-07-07T08:02:51.553Z,12528
2017-07-07T08:03:53.623Z,11908
2017-07-07T08:04:55.690Z,11196
2017-07-07T08:05:57.754Z,10600
2017-07-07T08:06:59.819Z,10556
2017-07-07T08:08:01.879Z,11100
2017-07-07T08:09:03.951Z,11804
2017-07-07T08:10:06.019Z,12472
2017-07-07T08:11:08.082Z,12736
2017-07-07T08:12:10.492Z,12400
2017-07-07T08:13:12.561Z,11804
2017-07-07T08:14:14.621Z,11148
2017-07-07T08:15:16.695Z,10416
2017-07-07T08:16:18.767Z,10012
2017-07-07T08:17:20.839Z,9756
2017-07-07T08:18:22.892Z,9708
2017-07-07T08:19:24.957Z,9688
2017-07-07T08:20:27.018Z,9604
2017-07-07T08:21:29.079Z,9384
2017-07-07T08:22:31.149Z,9076
2017-07-07T08:23:33.208Z,8996
2017-07-07T08:24:35.267Z,9192
2017-07-07T08:25:37.347Z,9556
2017-07-07T08:26:39.411Z,10176
2017-07-07T08:27:41.468Z,11104
2017-07-07T08:28:43.532Z,12236
2017-07-07T08:29:45.601Z,13520
2017-07-07T08:30:47.662Z,14724
2017-07-07T08:31:49.719Z,15372
2017-07-07T08:32:51.788Z,15220
2017-07-07T08:33:53.857Z,14760
2017-07-07T08:34:55.923Z,14460
2017-07-07T08:35:57.997Z,14324
2017-07-07T08:37:00.109Z,14416
2017-07-07T08:38:02.170Z,15132
2017-07-07T08:39:04.235Z,16732
2017-07-07T08:40:06.299Z,18136
2017-07-07T08:41:08.370Z,18976
2017-07-07T08:42:10.444Z,18656
2017-07-07T08:43:12.871Z,18432
2017-07-07T08:44:14.941Z,19008
2017-07-07T08:45:17.010Z,20064
2017-07-07T08:46:19.077Z,21536
2017-07-07T08:47:21.146Z,22880
2017-07-07T08:48:23.213Z,23616
2017-07-07T08:49:25.282Z,23552
2017-07-07T08:50:27.686Z,24032
2017-07-07T08:51:29.748Z,25312
2017-07-07T08:52:31.818Z,25920
2017-07-07T08:53:33.888Z,28032
2017-07-07T08:54:35.962Z,24000
2017-07-07T08:55:38.028Z,24416
2017-07-07T08:56:40.095Z,24160
2017-07-07T08:57:42.166Z,24096
2017-07-07T08:58:44.220Z,23680
2017-07-07T08:59:46.289Z,24640
2017-07-07T09:00:48.372Z,34720
2017-07-07T09:01:50.431Z,19872
2017-07-07T09:02:52.498Z,19232
2017-07-07T09:03:54.559Z,19776
2017-07-07T09:04:56.630Z,20416
2017-07-07T09:05:59.035Z,21440
2017-07-07T09:07:01.102Z,23584
2017-07-07T09:08:03.162Z,22976
2017-07-07T09:09:05.222Z,21504
2017-07-07T09:10:07.304Z,20928
2017-07-07T09:11:09.365Z,22752
2017-07-07T09:12:11.435Z,20416
2017-07-07T09:13:13.507Z,18720
2017-07-07T09:14:15.576Z,18816
2017-07-07T09:15:17.637Z,17492
2017-07-07T09:16:19.702Z,17248
2017-07-07T09:17:21.780Z,17248
2017-07-07T09:18:23.848Z,17288
2017-07-07T09:19:25.908Z,17424
2017-07-07T09:20:27.974Z,18044
2017-07-07T09:21:30.042Z,19456
2017-07-07T09:22:32.112Z,22528
2017-07-07T09:23:34.180Z,33152
2017-07-07T09:24:36.249Z,53152
2017-07-07T09:25:38.315Z,135360
2017-07-07T09:26:40.383Z,115904
2017-07-07T09:27:42.452Z,98240
2017-07-07T09:28:44.527Z,102976
2017-07-07T09:29:46.607Z,107008
2017-07-07T09:30:48.677Z,98304
2017-07-07T09:31:50.733Z,104384
2017-07-07T09:32:52.800Z,118752
2017-07-07T09:33:54.869Z,115104
2017-07-07T09:34:57.277Z,99424
2017-07-07T09:35:59.353Z,116672
2017-07-07T09:37:01.826Z,114272
2017-07-07T09:38:04.256Z,84928
2017-07-07T09:39:06.317Z,109056
2017-07-07T09:40:08.385Z,100864
2017-07-07T09:41:10.469Z,95392
2017-07-07T09:42:12.542Z,103840
2017-07-07T09:43:14.602Z,101952
2017-07-07T09:44:17.006Z,93696
2017-07-07T09:45:19.080Z,56480
2017-07-07T09:46:21.151Z,76160
2017-07-07T09:47:23.217Z,63232
2017-07-07T09:48:25.294Z,96000
2017-07-07T09:49:27.354Z,95936
2017-07-07T09:50:29.438Z,101056
2017-07-07T09:51:31.500Z,100800
2017-07-07T09:52:33.577Z,90784
2017-07-07T09:53:35.649Z,108128
2017-07-07T09:54:37.725Z,110144
2017-07-07T09:55:39.794Z,104032
2017-07-07T09:56:41.864Z,107136
2017-07-07T09:57:43.945Z,102688
2017-07-07T09:58:46.018Z,77632
2017-07-07T09:59:48.081Z,73472
2017-07-07T10:00:50.162Z,80416
2017-07-07T10:01:52.236Z,75872
2017-07-07T10:02:54.302Z,101600
2017-07-07T10:03:56.375Z,100832
2017-07-07T10:04:58.443Z,80992
2017-07-07T10:06:00.532Z,48736
2017-07-07T10:07:02.603Z,56768
2017-07-07T10:08:04.675Z,64736
2017-07-07T10:09:06.749Z,65696
2017-07-07T10:10:08.815Z,44928
2017-07-07T10:11:10.887Z,55424
2017-07-07T10:12:12.966Z,108896
2017-07-07T10:13:15.042Z,119168
2017-07-07T10:14:17.117Z,119840
2017-07-07T10:15:19.192Z,111776
2017-07-07T10:16:21.267Z,116992
2017-07-07T10:17:23.338Z,78432
2017-07-07T10:18:25.422Z,82496
2017-07-07T10:19:27.505Z,62816
2017-07-07T10:20:29.589Z,78240
2017-07-07T10:21:31.675Z,119168
2017-07-07T10:22:33.754Z,112832
2017-07-07T10:23:35.830Z,116544
2017-07-07T10:24:37.913Z,112736
2017-07-07T10:25:39.997Z,123168
2017-07-07T10:26:42.085Z,123328
2017-07-07T10:27:44.153Z,120000
2017-07-07T10:28:46.229Z,115008
2017-07-07T10:29:48.308Z,123680
2017-07-07T10:30:50.378Z,115872
2017-07-07T10:31:52.460Z,110592
2017-07-07T10:32:54.553Z,114208
2017-07-07T10:33:56.635Z,129056
2017-07-07T10:34:58.714Z,114560
2017-07-07T10:36:00.854Z,132320
2017-07-07T10:37:02.940Z,138752
2017-07-07T10:38:05.030Z,135040
2017-07-07T10:39:07.099Z,128384
2017-07-07T10:40:09.187Z,138336
2017-07-07T10:41:11.267Z,133600
2017-07-07T10:42:13.351Z,124896
2017-07-07T10:43:15.443Z,122976
2017-07-07T10:44:17.871Z,124704
2017-07-07T10:45:19.961Z,124992
2017-07-07T10:46:22.049Z,123680
2017-07-07T10:47:24.122Z,121568
2017-07-07T10:48:26.214Z,108032
2017-07-07T10:49:28.298Z,92800
2017-07-07T10:50:30.376Z,97728
2017-07-07T10:51:32.519Z,107264
2017-07-07T10:52:34.548Z,103552
2017-07-07T10:53:36.625Z,79072
2017-07-07T10:54:38.711Z,62528
2017-07-07T10:55:40.788Z,58816
2017-07-07T10:56:42.881Z,56512
2017-07-07T10:57:45.310Z,68928
2017-07-07T10:58:47.385Z,59712
2017-07-07T10:59:49.465Z,111872
2017-07-07T11:00:51.549Z,92320
2017-07-07T11:01:53.634Z,107200
2017-07-07T11:02:55.726Z,118016
2017-07-07T11:03:57.809Z,128384
2017-07-07T11:04:59.896Z,111808
2017-07-07T11:06:01.975Z,76704
2017-07-07T11:07:04.051Z,55776
2017-07-07T11:08:06.140Z,47840
2017-07-07T11:09:08.220Z,43328
2017-07-07T11:10:10.303Z,43616
2017-07-07T11:11:12.385Z,44928
2017-07-07T11:12:14.468Z,49280
2017-07-07T11:13:16.558Z,53408
2017-07-07T11:14:18.636Z,46848
2017-07-07T11:15:20.722Z,47712
2017-07-07T11:16:22.811Z,49536
2017-07-07T11:17:24.892Z,50688
2017-07-07T11:18:26.969Z,50848
2017-07-07T11:19:29.048Z,67456
2017-07-07T11:20:31.142Z,93792
2017-07-07T11:21:33.231Z,45600
2017-07-07T11:22:35.311Z,48992
2017-07-07T11:23:37.397Z,109408
2017-07-07T11:24:39.476Z,100224
2017-07-07T11:25:41.557Z,91680
2017-07-07T11:26:43.632Z,94688
2017-07-07T11:27:45.722Z,91392
2017-07-07T11:28:47.807Z,89664
2017-07-07T11:29:49.882Z,90208
2017-07-07T11:30:51.965Z,89184
2017-07-07T11:31:54.059Z,89120
2017-07-07T11:32:56.133Z,83680
2017-07-07T11:33:58.948Z,51392
2017-07-07T11:35:01.373Z,46592
2017-07-07T11:36:03.447Z,54272
2017-07-07T11:37:05.531Z,67616
2017-07-07T11:38:07.621Z,79392
2017-07-07T11:39:09.709Z,74624
2017-07-07T11:40:11.794Z,69280
2017-07-07T11:41:13.872Z,96992
2017-07-07T11:42:16.319Z,108896
2017-07-07T11:43:18.402Z,108640
2017-07-07T11:44:20.484Z,105376
2017-07-07T11:45:22.582Z,106176
2017-07-07T11:46:24.670Z,106048
2017-07-07T11:47:26.748Z,106208
2017-07-07T11:48:28.834Z,100992
2017-07-07T11:49:31.286Z,80992
2017-07-07T11:50:33.368Z,54976
2017-07-07T11:51:35.457Z,48160
2017-07-07T11:52:37.552Z,46848
2017-07-07T11:53:39.645Z,42400
2017-07-07T11:54:41.739Z,38304
2017-07-07T11:55:43.822Z,34720
2017-07-07T11:56:45.901Z,35072
2017-07-07T11:57:47.996Z,37696
2017-07-07T11:58:50.072Z,42368
2017-07-07T11:59:52.153Z,54752
2017-07-07T12:00:54.247Z,59040
2017-07-07T12:01:56.328Z,52384
2017-07-07T12:02:58.415Z,55616
2017-07-07T12:04:00.505Z,55328
2017-07-07T12:05:02.591Z,48800
2017-07-07T12:06:04.687Z,43424
2017-07-07T12:07:06.768Z,42688
2017-07-07T12:08:08.857Z,41568
2017-07-07T12:09:11.313Z,37760
2017-07-07T12:10:13.388Z,39168
2017-07-07T12:11:15.479Z,42816
2017-07-07T12:12:17.565Z,42912
2017-07-07T12:13:19.648Z,35136
2017-07-07T12:14:21.738Z,27584
2017-07-07T12:15:23.833Z,25952
2017-07-07T12:16:25.916Z,26048
2017-07-07T12:17:28.002Z,25184
2017-07-07T12:18:30.081Z,23648
2017-07-07T12:19:32.502Z,22304
2017-07-07T12:20:34.583Z,22272
2017-07-07T12:21:36.681Z,23264
2017-07-07T12:22:38.762Z,24384
2017-07-07T12:23:40.852Z,25408
2017-07-07T12:24:42.928Z,26432
2017-07-07T12:25:45.012Z,27776
2017-07-07T12:26:47.095Z,30432
2017-07-07T12:27:49.172Z,33216
2017-07-07T12:28:51.272Z,34560
2017-07-07T12:29:53.354Z,36736
2017-07-07T12:30:55.428Z,36736
2017-07-07T12:31:57.514Z,32160
2017-07-07T12:32:59.610Z,28096
2017-07-07T12:34:01.679Z,25856
2017-07-07T12:35:03.767Z,24864
2017-07-07T12:36:05.855Z,24704
2017-07-07T12:37:07.946Z,24832
2017-07-07T12:38:10.036Z,25664
2017-07-07T12:39:12.120Z,27232
2017-07-07T12:40:14.204Z,29536
2017-07-07T12:41:16.302Z,33216
2017-07-07T12:42:18.379Z,37312
2017-07-07T12:43:20.466Z,37344
2017-07-07T12:44:22.539Z,35904
2017-07-07T12:45:24.617Z,36704
2017-07-07T12:46:26.692Z,38528
2017-07-07T12:47:28.781Z,43072
2017-07-07T12:48:30.870Z,56768
2017-07-07T12:49:32.951Z,50912
2017-07-07T12:50:35.035Z,42432
2017-07-07T12:51:37.128Z,40256
2017-07-07T12:52:39.196Z,38464
2017-07-07T12:53:41.282Z,36768
2017-07-07T12:54:43.368Z,35712
2017-07-07T12:55:45.446Z,35392
2017-07-07T12:56:47.525Z,34336
2017-07-07T12:57:49.619Z,32864
2017-07-07T12:58:51.704Z,32800
2017-07-07T12:59:53.786Z,33664
2017-07-07T13:00:55.870Z,35648
2017-07-07T13:01:57.957Z,37408
2017-07-07T13:03:00.039Z,38944
2017-07-07T13:04:02.118Z,41728
2017-07-07T13:05:04.202Z,59456
2017-07-07T13:06:06.286Z,47424
2017-07-07T13:07:08.367Z,47424
2017-07-07T13:08:10.452Z,42656
2017-07-07T13:09:12.531Z,66432
2017-07-07T13:10:14.615Z,44192
2017-07-07T13:11:16.698Z,38336
2017-07-07T13:12:18.783Z,41472
2017-07-07T13:13:20.861Z,37472
2017-07-07T13:14:22.947Z,35808
2017-07-07T13:15:25.028Z,34432
2017-07-07T13:16:27.113Z,34816
2017-07-07T13:17:29.196Z,36960
2017-07-07T13:18:31.280Z,40992
2017-07-07T13:19:33.366Z,47136
2017-07-07T13:20:35.451Z,53472
2017-07-07T13:21:37.528Z,56416
2017-07-07T13:22:39.617Z,67136
2017-07-07T13:23:41.687Z,57216
2017-07-07T13:24:43.783Z,62912
2017-07-07T13:25:45.870Z,57216
2017-07-07T13:26:47.945Z,90624
2017-07-07T13:27:50.031Z,112960
2017-07-07T13:28:52.111Z,104320
2017-07-07T13:29:54.201Z,96800
2017-07-07T13:30:56.274Z,87968
2017-07-07T13:31:58.362Z,81280
2017-07-07T13:33:00.430Z,89248
2017-07-07T13:34:02.524Z,102016
2017-07-07T13:35:04.615Z,60128
2017-07-07T13:36:06.701Z,69120
2017-07-07T13:37:08.780Z,90080
2017-07-07T13:38:10.867Z,95168
2017-07-07T13:39:12.949Z,73376
2017-07-07T13:40:15.030Z,94432
2017-07-07T13:41:17.109Z,78176
2017-07-07T13:42:19.203Z,90784
2017-07-07T13:43:21.279Z,99648
2017-07-07T13:44:23.360Z,96448
2017-07-07T13:45:25.442Z,98688
2017-07-07T13:46:27.528Z,99040
2017-07-07T13:47:29.620Z,78048